createdAt,value
2022-08-09T00:01:52.795Z,1024.51
2022-08-09T00:04:34.563Z,1024.46
2022-08-09T00:07:03.704Z,1024.34
2022-08-09T00:09:39.218Z,1024.37
2022-08-09T00:12:06.903Z,1024.40
2022-08-09T00:14:37.895Z,1024.40
2022-08-09T00:17:05.900Z,1024.39
2022-08-09T00:19:34.781Z,1024.44
2022-08-09T00:22:04.422Z,1024.37
2022-08-09T00:24:33.264Z,1024.38
2022-08-09T00:27:05.659Z,1024.41
2022-08-09T00:30:10.070Z,1024.45
2022-08-09T00:32:27.248Z,1024.42
2022-08-09T00:34:54.516Z,1024.45
2022-08-09T00:37:23.953Z,1024.46
2022-08-09T00:40:09.014Z,1024.45
2022-08-09T00:44:10.126Z,1024.39
2022-08-09T00:45:28.165Z,1024.37
2022-08-09T00:47:55.467Z,1024.22
2022-08-09T00:50:24.175Z,1024.18
2022-08-09T00:52:51.776Z,1024.23
2022-08-09T00:56:03.673Z,1024.28
2022-08-09T00:58:09.626Z,1024.22
2022-08-09T01:00:44.272Z,1024.23
2022-08-09T01:03:18.758Z,1024.25
2022-08-09T01:05:54.609Z,1024.29
2022-08-09T01:08:30.886Z,1024.28
2022-08-09T01:11:15.715Z,1024.20
2022-08-09T01:13:59.185Z,1024.28
2022-08-09T01:16:33.697Z,1024.36
2022-08-09T01:19:17.034Z,1024.45
2022-08-09T01:22:16.280Z,1024.37
2022-08-09T01:24:58.415Z,1024.38
2022-08-09T01:27:33.309Z,1024.48
2022-08-09T01:30:03.821Z,1024.41
2022-08-09T01:32:37.566Z,1024.46
2022-08-09T01:35:28.657Z,1024.50
2022-08-09T01:38:08.311Z,1024.47
2022-08-09T01:40:42.439Z,1024.60
2022-08-09T01:43:12.463Z,1024.48
2022-08-09T01:45:44.783Z,1024.52
2022-08-09T01:48:16.602Z,1024.42
2022-08-09T01:50:54.999Z,1024.53
2022-08-09T01:53:22.780Z,1024.56
2022-08-09T01:55:52.279Z,1024.50
2022-08-09T01:58:25.705Z,1024.51
2022-08-09T02:00:57.607Z,1024.57
2022-08-09T02:03:30.054Z,1024.64
2022-08-09T02:06:06.328Z,1024.70
2022-08-09T02:08:58.567Z,1024.58
2022-08-09T02:11:42.851Z,1024.51
2022-08-09T02:14:15.805Z,1024.48
2022-08-09T02:17:14.724Z,1024.52
2022-08-09T02:19:45.076Z,1024.45
2022-08-09T02:22:31.521Z,1024.50
2022-08-09T02:25:04.514Z,1024.44
2022-08-09T02:27:43.508Z,1024.39
2022-08-09T02:30:36.844Z,1024.42
2022-08-09T02:33:07.769Z,1024.46
2022-08-09T02:36:01.885Z,1024.45
2022-08-09T02:38:32.553Z,1024.34
2022-08-09T02:41:08.296Z,1024.45
2022-08-09T02:43:51.804Z,1024.37
2022-08-09T02:46:28.428Z,1024.39
2022-08-09T02:49:01.176Z,1024.30
2022-08-09T02:51:37.011Z,1024.36
2022-08-09T02:54:13.808Z,1024.33
2022-08-09T02:56:48.852Z,1024.28
2022-08-09T02:59:26.471Z,1024.19
2022-08-09T03:02:12.326Z,1024.18
2022-08-09T03:04:50.722Z,1024.17
2022-08-09T03:07:20.502Z,1024.18
2022-08-09T03:09:54.065Z,1024.27
2022-08-09T03:12:25.617Z,1024.16
2022-08-09T03:14:54.262Z,1024.13
2022-08-09T03:17:27.103Z,1024.12
2022-08-09T03:20:03.522Z,1024.16
2022-08-09T03:22:41.351Z,1024.18
2022-08-09T03:25:26.911Z,1024.19
2022-08-09T03:27:59.895Z,1024.06
2022-08-09T03:30:34.262Z,1024.09
2022-08-09T03:33:13.161Z,1024.10
2022-08-09T03:36:13.716Z,1024.11
2022-08-09T03:38:34.451Z,1024.12
2022-08-09T03:41:04.885Z,1024.17
2022-08-09T03:43:33.417Z,1024.20
2022-08-09T03:46:20.031Z,1024.13
2022-08-09T03:48:59.094Z,1024.25
2022-08-09T03:51:57.222Z,1024.19
2022-08-09T03:54:29.149Z,1024.28
2022-08-09T03:57:04.309Z,1024.39
2022-08-09T03:59:54.982Z,1024.38
2022-08-09T04:02:26.462Z,1024.38
2022-08-09T04:04:59.286Z,1024.46
2022-08-09T04:07:33.688Z,1024.51
2022-08-09T04:10:20.398Z,1024.54
2022-08-09T04:12:52.332Z,1024.45
2022-08-09T04:15:40.563Z,1024.50
2022-08-09T04:18:17.789Z,1024.55
2022-08-09T04:20:46.827Z,1024.52
2022-08-09T04:23:17.270Z,1024.52
2022-08-09T04:25:49.643Z,1024.52
2022-08-09T04:28:34.314Z,1024.49
2022-08-09T04:31:07.705Z,1024.48
2022-08-09T04:33:47.733Z,1024.35
2022-08-09T04:36:21.774Z,1024.29
2022-08-09T04:38:50.740Z,1024.31
2022-08-09T04:41:24.036Z,1024.28
2022-08-09T04:44:05.962Z,1024.17
2022-08-09T04:46:57.699Z,1024.22
2022-08-09T04:49:40.112Z,1024.21
2022-08-09T04:52:22.052Z,1024.16
2022-08-09T04:54:53.833Z,1024.09
2022-08-09T04:57:25.224Z,1024.09
2022-08-09T04:59:54.372Z,1024.18
2022-08-09T05:02:23.363Z,1024.19
2022-08-09T05:04:55.179Z,1024.21
2022-08-09T05:07:29.143Z,1024.20
2022-08-09T05:10:02.041Z,1024.20
2022-08-09T05:12:33.252Z,1024.23
2022-08-09T05:15:03.440Z,1024.25
2022-08-09T05:18:38.084Z,1024.32
2022-08-09T05:20:29.528Z,1024.25
2022-08-09T05:23:55.655Z,1024.29
2022-08-09T05:25:51.949Z,1024.31
2022-08-09T05:28:23.021Z,1024.36
2022-08-09T05:30:51.590Z,1024.42
2022-08-09T05:33:26.442Z,1024.38
2022-08-09T05:36:01.138Z,1024.35
2022-08-09T05:38:35.231Z,1024.37
2022-08-09T05:41:06.476Z,1024.19
2022-08-09T05:43:40.637Z,1024.19
2022-08-09T05:46:16.005Z,1023.57
2022-08-09T05:48:42.976Z,1023.17
2022-08-09T05:51:41.613Z,1023.33
2022-08-09T05:53:59.635Z,1023.38
2022-08-09T05:56:30.146Z,1023.40
2022-08-09T05:58:58.670Z,1023.56
2022-08-09T06:01:34.265Z,1023.64
2022-08-09T06:04:13.629Z,1023.66
2022-08-09T06:06:50.090Z,1023.75
2022-08-09T06:09:40.787Z,1023.76
2022-08-09T06:12:12.080Z,1023.65
2022-08-09T06:14:42.936Z,1023.55
2022-08-09T06:17:16.572Z,1023.33
2022-08-09T06:19:46.881Z,1023.29
2022-08-09T06:22:22.495Z,1023.12
2022-08-09T06:25:12.442Z,1023.12
2022-08-09T06:27:51.696Z,1023.11
2022-08-09T06:30:22.999Z,1023.10
2022-08-09T06:33:00.348Z,1023.16
2022-08-09T06:35:57.002Z,1023.18
2022-08-09T06:38:37.208Z,1023.15
2022-08-09T06:41:12.418Z,1023.17
2022-08-09T06:43:47.606Z,1022.97
2022-08-09T06:46:40.269Z,1023.11
2022-08-09T06:50:13.862Z,1023.48
2022-08-09T06:52:45.863Z,1023.38
2022-08-09T06:55:18.134Z,1023.24
2022-08-09T06:58:03.117Z,1022.89
2022-08-09T07:00:51.087Z,1022.69
2022-08-09T07:03:28.073Z,1022.59
2022-08-09T07:06:03.561Z,1022.61
2022-08-09T07:08:39.792Z,1022.55
2022-08-09T07:11:07.899Z,1022.51
2022-08-09T07:13:45.229Z,1022.65
2022-08-09T07:16:41.707Z,1022.65
2022-08-09T07:19:22.968Z,1022.51
2022-08-09T07:21:56.938Z,1022.32
2022-08-09T07:24:32.772Z,1022.36
2022-08-09T07:27:27.153Z,1022.35
2022-08-09T07:30:00.301Z,1022.54
2022-08-09T07:32:33.046Z,1022.55
2022-08-09T07:35:10.199Z,1022.60
2022-08-09T07:37:45.750Z,1022.60
2022-08-09T07:40:17.041Z,1022.69
2022-08-09T07:42:55.963Z,1022.60
2022-08-09T07:45:39.605Z,1022.40
2022-08-09T07:48:28.917Z,1022.26
2022-08-09T07:51:09.527Z,1022.17
2022-08-09T07:54:05.780Z,1022.26
2022-08-09T07:56:38.869Z,1022.34
2022-08-09T07:59:16.094Z,1022.47
2022-08-09T08:02:05.091Z,1022.53
2022-08-09T08:04:33.964Z,1022.60
2022-08-09T08:07:15.489Z,1022.44
2022-08-09T08:10:10.626Z,1022.55
2022-08-09T08:12:43.547Z,1022.24
2022-08-09T08:15:13.768Z,1022.14
2022-08-09T08:17:54.914Z,1021.87
2022-08-09T08:20:30.518Z,1021.66
2022-08-09T08:23:16.267Z,1021.53
2022-08-09T08:25:50.327Z,1021.58
2022-08-09T08:28:25.708Z,1021.28
2022-08-09T08:31:08.902Z,1021.21
2022-08-09T08:33:53.505Z,1021.04
2022-08-09T08:36:28.624Z,1020.92
2022-08-09T08:38:56.663Z,1020.98
2022-08-09T08:41:51.070Z,1021.05
2022-08-09T08:44:23.068Z,1020.81
2022-08-09T08:47:02.961Z,1020.73
2022-08-09T08:49:48.103Z,1020.73
2022-08-09T08:52:57.397Z,1020.72
2022-08-09T08:55:07.552Z,1020.67
2022-08-09T08:57:37.392Z,1020.65
2022-08-09T09:00:16.819Z,1020.47
2022-08-09T09:02:52.644Z,1020.44
2022-08-09T09:05:57.763Z,1020.35
2022-08-09T09:08:30.784Z,1020.33
2022-08-09T09:11:02.492Z,1020.18
2022-08-09T09:13:55.463Z,1020.04
2022-08-09T09:16:29.806Z,1020.09
2022-08-09T09:22:04.239Z,1019.97
2022-08-09T09:24:34.680Z,1019.95
2022-08-09T09:27:02.746Z,1019.87
2022-08-09T09:30:08.521Z,1019.90
2022-08-09T09:32:32.439Z,1020.04
2022-08-09T09:35:07.696Z,1019.97
2022-08-09T09:37:40.212Z,1019.87
2022-08-09T09:40:12.328Z,1019.91
2022-08-09T09:42:42.964Z,1019.73
2022-08-09T09:45:26.823Z,1019.68
2022-08-09T09:48:03.667Z,1019.73
2022-08-09T09:50:51.076Z,1019.77
2022-08-09T09:53:44.018Z,1019.80
2022-08-09T09:56:20.067Z,1019.72
2022-08-09T09:59:00.478Z,1019.71
2022-08-09T10:01:38.213Z,1019.86
2022-08-09T10:04:15.887Z,1019.89
2022-08-09T10:06:52.126Z,1020.01
2022-08-09T10:09:24.717Z,1020.06
2022-08-09T10:12:07.636Z,1020.27
2022-08-09T10:17:56.800Z,1020.05
2022-08-09T10:20:35.695Z,1019.90
2022-08-09T10:23:20.027Z,1019.81
2022-08-09T10:26:06.308Z,1019.63
2022-08-09T10:28:35.622Z,1019.52
2022-08-09T10:34:10.101Z,1019.39
2022-08-09T10:36:40.050Z,1019.41
2022-08-09T10:39:15.499Z,1019.29
2022-08-09T10:41:48.037Z,1019.52
2022-08-09T10:44:18.426Z,1019.81
2022-08-09T10:48:12.812Z,1019.89
2022-08-09T10:50:05.526Z,1020.02
2022-08-09T10:52:57.038Z,1020.15
2022-08-09T10:55:28.278Z,1020.27
2022-08-09T10:58:00.133Z,1020.14
2022-08-09T11:00:35.873Z,1020.06
2022-08-09T11:03:27.820Z,1019.90
2022-08-09T11:06:22.895Z,1020.23
2022-08-09T11:09:15.547Z,1020.13
2022-08-09T11:12:17.320Z,1019.89
2022-08-09T11:14:46.094Z,1019.69
2022-08-09T11:17:53.442Z,1019.64
2022-08-09T11:20:45.460Z,1019.63
2022-08-09T11:23:23.875Z,1019.53
2022-08-09T11:25:57.390Z,1019.50
2022-08-09T11:28:38.610Z,1019.43
2022-08-09T11:31:48.831Z,1019.19
2022-08-09T11:34:35.622Z,1019.28
2022-08-09T11:37:07.333Z,1019.58
2022-08-09T11:40:05.403Z,1019.28
2022-08-09T11:42:46.763Z,1019.34
2022-08-09T11:45:22.637Z,1019.23
2022-08-09T11:47:52.387Z,1019.15
2022-08-09T11:51:19.245Z,1019.07
2022-08-09T11:54:00.621Z,1019.16
2022-08-09T11:56:47.549Z,1019.03
2022-08-09T11:59:30.144Z,1018.96
2022-08-09T12:02:34.051Z,1019.03
2022-08-09T12:04:57.997Z,1019.01
2022-08-09T12:07:41.687Z,1019.00
2022-08-09T12:10:31.896Z,1019.05
2022-08-09T12:13:03.805Z,1019.00
2022-08-09T12:15:52.188Z,1019.03
2022-08-09T12:18:29.577Z,1018.99
2022-08-09T12:20:59.067Z,1018.96
2022-08-09T12:23:57.954Z,1019.16
2022-08-09T12:26:19.565Z,1018.99
2022-08-09T12:29:10.433Z,1019.14
2022-08-09T12:32:01.690Z,1019.12
2022-08-09T12:34:35.919Z,1018.98
2022-08-09T12:37:09.732Z,1019.12
2022-08-09T12:40:01.354Z,1019.09
2022-08-09T12:42:30.740Z,1018.99
2022-08-09T12:45:00.973Z,1019.03
2022-08-09T12:47:37.171Z,1019.02
2022-08-09T12:50:12.211Z,1018.89
2022-08-09T12:52:42.978Z,1018.86
2022-08-09T12:56:11.819Z,1018.73
2022-08-09T12:58:24.002Z,1018.66
2022-08-09T13:01:00.336Z,1018.70
2022-08-09T13:03:57.025Z,1018.72
2022-08-09T13:06:34.984Z,1018.83
2022-08-09T13:09:15.500Z,1018.75
2022-08-09T13:11:47.481Z,1018.83
2022-08-09T13:14:41.697Z,1018.82
2022-08-09T13:17:43.862Z,1018.77
2022-08-09T13:20:09.378Z,1018.74
2022-08-09T13:23:01.804Z,1018.67
2022-08-09T13:25:42.016Z,1018.66
2022-08-09T13:28:14.085Z,1018.65
2022-08-09T13:32:15.826Z,1018.70
2022-08-09T13:33:54.345Z,1018.70
2022-08-09T13:36:37.334Z,1018.81
2022-08-09T13:41:54.534Z,1018.78
2022-08-09T13:42:02.049Z,1018.79
2022-08-09T13:44:29.969Z,1018.85
2022-08-09T13:47:26.963Z,1018.89
2022-08-09T13:49:56.330Z,1018.93
2022-08-09T13:52:29.402Z,1018.88
2022-08-09T13:55:00.588Z,1018.85
2022-08-09T13:57:37.412Z,1018.86
2022-08-09T14:00:10.817Z,1018.78
2022-08-09T14:02:42.332Z,1018.74
2022-08-09T14:05:59.259Z,1018.80
2022-08-09T14:08:17.417Z,1018.77
2022-08-09T14:10:49.326Z,1018.73
2022-08-09T14:13:21.843Z,1018.74
2022-08-09T14:16:10.206Z,1018.70
2022-08-09T14:18:45.963Z,1018.69
2022-08-09T14:21:20.336Z,1018.79
2022-08-09T14:23:55.201Z,1018.70
2022-08-09T14:26:32.111Z,1018.77
2022-08-09T14:29:01.481Z,1018.80
2022-08-09T14:31:36.028Z,1018.68
2022-08-09T14:34:31.585Z,1018.79
2022-08-09T14:37:13.485Z,1018.78
2022-08-09T14:39:46.938Z,1018.78
2022-08-09T14:42:28.783Z,1018.78
2022-08-09T14:46:39.991Z,1018.74
2022-08-09T14:47:58.685Z,1018.72
2022-08-09T14:50:28.789Z,1018.86
2022-08-09T14:52:57.602Z,1018.84
2022-08-09T14:55:24.982Z,1018.86
2022-08-09T14:57:52.335Z,1018.85
2022-08-09T15:00:21.452Z,1018.87
2022-08-09T15:02:52.097Z,1018.92
2022-08-09T15:05:20.153Z,1018.87
2022-08-09T15:07:54.822Z,1018.87
2022-08-09T15:10:29.364Z,1018.99
2022-08-09T15:13:03.027Z,1018.98
2022-08-09T15:15:34.514Z,1019.10
2022-08-09T15:18:08.268Z,1019.11
2022-08-09T15:21:58.699Z,1019.11
2022-08-09T15:24:03.599Z,1019.08
2022-08-09T15:26:31.069Z,1019.19
2022-08-09T15:29:04.231Z,1019.27
2022-08-09T15:31:41.491Z,1019.24
2022-08-09T15:34:33.505Z,1019.20
2022-08-09T15:37:04.315Z,1019.10
2022-08-09T15:39:49.959Z,1019.21
2022-08-09T15:42:22.278Z,1019.20
2022-08-09T15:44:49.793Z,1019.28
2022-08-09T15:47:22.482Z,1019.32
2022-08-09T15:50:04.209Z,1019.18
2022-08-09T15:52:33.588Z,1019.29
2022-08-09T15:55:01.468Z,1019.34
2022-08-09T15:57:43.991Z,1019.39
2022-08-09T16:00:14.903Z,1019.40
2022-08-09T16:02:48.122Z,1019.36
2022-08-09T16:05:25.585Z,1019.32
2022-08-09T16:07:52.676Z,1019.36
2022-08-09T16:10:56.006Z,1019.39
2022-08-09T16:13:18.997Z,1019.41
2022-08-09T16:16:10.256Z,1019.40
2022-08-09T16:18:45.822Z,1019.39
2022-08-09T16:21:16.906Z,1019.42
2022-08-09T16:23:50.925Z,1019.41
2022-08-09T16:26:34.484Z,1019.42
2022-08-09T16:29:11.022Z,1019.33
2022-08-09T16:32:17.853Z,1019.38
2022-08-09T16:34:54.798Z,1019.39
2022-08-09T16:37:19.169Z,1019.33
2022-08-09T16:39:48.154Z,1019.52
2022-08-09T16:42:35.398Z,1019.56
2022-08-09T16:45:05.620Z,1019.57
2022-08-09T16:48:40.748Z,1019.59
2022-08-09T16:50:29.161Z,1019.67
2022-08-09T16:53:01.890Z,1019.72
2022-08-09T16:55:44.160Z,1019.76
2022-08-09T16:58:22.575Z,1019.83
2022-08-09T17:00:52.606Z,1019.87
2022-08-09T17:03:22.846Z,1019.84
2022-08-09T17:06:07.578Z,1019.84
2022-08-09T17:08:45.726Z,1019.89
2022-08-09T17:11:41.234Z,1019.87
2022-08-09T17:14:25.880Z,1019.94
2022-08-09T17:17:25.935Z,1019.96
2022-08-09T17:20:29.706Z,1020.01
2022-08-09T17:22:50.324Z,1020.10
2022-08-09T17:25:22.290Z,1020.04
2022-08-09T17:27:54.613Z,1020.08
2022-08-09T17:30:25.985Z,1020.23
2022-08-09T17:33:00.695Z,1020.33
2022-08-09T17:38:34.141Z,1020.43
2022-08-09T17:41:05.848Z,1020.30
2022-08-09T17:43:37.034Z,1020.45
2022-08-09T17:46:07.650Z,1020.54
2022-08-09T17:48:52.309Z,1020.48
2022-08-09T17:51:23.127Z,1020.63
2022-08-09T17:53:53.424Z,1020.79
2022-08-09T17:56:27.444Z,1020.86
2022-08-09T17:58:58.562Z,1020.88
2022-08-09T18:02:03.314Z,1020.94
2022-08-09T18:04:15.616Z,1021.18
2022-08-09T18:06:49.760Z,1021.19
2022-08-09T18:09:40.078Z,1021.25
2022-08-09T18:12:19.867Z,1021.45
2022-08-09T18:14:55.050Z,1021.43
2022-08-09T18:18:03.338Z,1021.61
2022-08-09T18:21:00.490Z,1021.64
2022-08-09T18:24:11.629Z,1021.89
2022-08-09T18:26:04.937Z,1021.93
2022-08-09T18:30:41.836Z,1021.98
2022-08-09T18:31:24.871Z,1021.94
2022-08-09T18:34:06.067Z,1022.15
2022-08-09T18:36:36.421Z,1022.15
2022-08-09T18:39:05.510Z,1022.23
2022-08-09T18:41:35.007Z,1022.37
2022-08-09T18:44:31.895Z,1022.43
2022-08-09T18:47:15.053Z,1022.47
2022-08-09T18:49:47.442Z,1022.51
2022-08-09T18:52:24.974Z,1022.71
2022-08-09T18:55:02.770Z,1022.75
2022-08-09T18:57:42.756Z,1022.72
2022-08-09T19:00:20.319Z,1022.68
2022-08-09T19:02:54.270Z,1022.73
2022-08-09T19:05:49.074Z,1022.80
2022-08-09T19:08:19.851Z,1022.71
2022-08-09T19:10:50.771Z,1022.73
2022-08-09T19:13:38.254Z,1022.73
2022-08-09T19:16:20.878Z,1022.66
2022-08-09T19:18:50.737Z,1022.81
2022-08-09T19:21:21.593Z,1022.88
2022-08-09T19:24:33.463Z,1022.91
2022-08-09T19:26:57.920Z,1022.90
2022-08-09T19:29:24.888Z,1022.93
2022-08-09T19:31:51.871Z,1023.04
2022-08-09T19:34:22.860Z,1023.04
2022-08-09T19:36:53.534Z,1023.06
2022-08-09T19:39:43.944Z,1023.11
2022-08-09T19:42:14.456Z,1023.23
2022-08-09T19:44:42.903Z,1023.21
2022-08-09T19:47:11.257Z,1023.28
2022-08-09T19:50:09.025Z,1023.29
2022-08-09T19:52:26.657Z,1023.42
2022-08-09T19:54:55.261Z,1023.40
2022-08-09T19:57:25.703Z,1023.39
2022-08-09T20:00:00.001Z,1023.51
2022-08-09T20:04:11.438Z,1023.52
2022-08-09T20:05:23.688Z,1023.81
2022-08-09T20:08:00.488Z,1023.89
2022-08-09T20:10:36.813Z,1023.90
2022-08-09T20:13:06.505Z,1023.85
2022-08-09T20:16:33.264Z,1023.85
2022-08-09T20:18:28.167Z,1024.16
2022-08-09T20:20:56.470Z,1024.17
2022-08-09T20:23:38.619Z,1024.17
2022-08-09T20:26:09.435Z,1024.40
2022-08-09T20:28:48.651Z,1024.41
2022-08-09T20:31:17.221Z,1024.28
2022-08-09T20:33:45.653Z,1024.39
2022-08-09T20:36:12.905Z,1024.44
2022-08-09T20:41:35.133Z,1024.36
2022-08-09T20:44:06.874Z,1024.51
2022-08-09T20:46:42.923Z,1024.49
2022-08-09T20:49:12.172Z,1024.54
2022-08-09T20:51:42.192Z,1024.29
2022-08-09T20:54:12.696Z,1024.44
2022-08-09T20:56:53.662Z,1024.54
2022-08-09T20:59:50.157Z,1024.36
2022-08-09T21:02:09.986Z,1024.28
2022-08-09T21:05:52.882Z,1024.45
2022-08-09T21:07:38.479Z,1024.41
2022-08-09T21:10:08.326Z,1024.36
2022-08-09T21:12:38.679Z,1024.42
2022-08-09T21:15:12.522Z,1024.30
2022-08-09T21:18:22.979Z,1024.44
2022-08-09T21:20:30.079Z,1024.30
2022-08-09T21:22:59.711Z,1024.28
2022-08-09T21:25:28.237Z,1024.32
2022-08-09T21:28:12.253Z,1024.47
2022-08-09T21:30:45.907Z,1024.38
2022-08-09T21:33:21.843Z,1024.32
2022-08-09T21:35:52.772Z,1024.35
2022-08-09T21:38:31.010Z,1024.36
2022-08-09T21:41:00.646Z,1024.49
2022-08-09T21:43:56.026Z,1024.51
2022-08-09T21:46:18.492Z,1024.57
2022-08-09T21:48:49.480Z,1024.66
2022-08-09T21:51:35.749Z,1024.62
2022-08-09T21:54:05.782Z,1024.65
2022-08-09T21:56:44.942Z,1024.58
2022-08-09T21:59:25.683Z,1024.82
2022-08-09T22:02:00.279Z,1024.75
2022-08-09T22:04:55.037Z,1024.78
2022-08-09T22:07:23.411Z,1024.79
2022-08-09T22:10:05.962Z,1024.86
2022-08-09T22:12:33.302Z,1024.96
2022-08-09T22:15:05.703Z,1024.97
2022-08-09T22:17:37.614Z,1025.00
2022-08-09T22:20:17.108Z,1025.09
2022-08-09T22:22:50.659Z,1025.11
2022-08-09T22:26:05.461Z,1025.17
2022-08-09T22:28:10.870Z,1025.32
2022-08-09T22:30:48.668Z,1025.27
2022-08-09T22:33:17.209Z,1025.34
2022-08-09T22:36:01.682Z,1025.34
2022-08-09T22:38:30.438Z,1025.43
2022-08-09T22:41:00.655Z,1025.50
2022-08-09T22:44:02.276Z,1025.40
2022-08-09T22:48:14.950Z,1025.41
2022-08-09T22:49:10.280Z,1025.40
2022-08-09T22:51:49.797Z,1025.41
2022-08-09T22:54:26.865Z,1025.42
2022-08-09T22:56:56.638Z,1025.47
2022-08-09T22:59:55.833Z,1025.54
2022-08-09T23:02:23.717Z,1025.56
2022-08-09T23:04:54.092Z,1025.52
2022-08-09T23:07:31.143Z,1025.68
2022-08-09T23:10:11.944Z,1025.49
2022-08-09T23:12:43.227Z,1025.55
2022-08-09T23:15:13.439Z,1025.47
2022-08-09T23:17:45.440Z,1025.58
2022-08-09T23:20:12.519Z,1025.59
2022-08-09T23:22:41.300Z,1025.71
2022-08-09T23:25:10.105Z,1025.61
2022-08-09T23:28:11.686Z,1025.61
2022-08-09T23:30:30.958Z,1025.56
2022-08-09T23:33:08.883Z,1025.58
2022-08-09T23:36:05.028Z,1025.66
2022-08-09T23:38:33.143Z,1025.60
2022-08-09T23:41:02.858Z,1025.70
2022-08-09T23:43:34.945Z,1025.81
2022-08-09T23:46:02.100Z,1025.73
2022-08-09T23:48:30.497Z,1025.72
2022-08-09T23:50:57.440Z,1025.64
2022-08-09T23:53:25.628Z,1025.70
2022-08-09T23:56:03.507Z,1025.68
2022-08-09T23:58:36.939Z,1025.68
